Chaplin, Canada
Current Conditions -  °F | °C
As of 2:00 AM on Sunday 26 Oct 2014 (Local Time) from CYYN Reporting Station
Broken Clouds Broken Clouds  
Wind Chill: 39°   Ceiling: 25000
Heat Index: 45°   Visibility: 9mi
Dew Point: 32°   Wind: 12mph
Humidity: 61%   Direction: 190°S
Pressure: 29.53"   Gusts: NA
Location:  50.47°N, 106.67°W
Report Text: CYYN 260800Z AUTO 19010KT 9SM BKN250 07/00 A2953 RMK SLP006 DENSITY ALT 2700FT
Loading
Personal Weather Stations






























Interactive Weather Map New forecast layout! Learn more

10-Day Weather Forecast

Advertisements
Track Severe Weather on mobile